createdAt,value
2022-09-07T00:00:13.790Z,3.28
2022-09-07T00:02:44.754Z,3.40
2022-09-07T00:05:12.286Z,3.50
2022-09-07T00:07:39.839Z,3.10
2022-09-07T00:10:08.286Z,3.22
2022-09-07T00:12:35.823Z,3.28
2022-09-07T00:15:04.831Z,4.20
2022-09-07T00:17:32.199Z,4.07
2022-09-07T00:20:00.845Z,4.53
2022-09-07T00:22:32.588Z,3.33
2022-09-07T00:24:59.883Z,4.28
2022-09-07T00:27:27.287Z,4.47
2022-09-07T00:29:55.109Z,4.60
2022-09-07T00:32:22.505Z,4.63
2022-09-07T00:34:51.313Z,4.13
2022-09-07T00:37:19.048Z,4.38
2022-09-07T00:39:46.528Z,3.53
2022-09-07T00:42:14.805Z,4.32
2022-09-07T00:45:05.605Z,4.85
2022-09-07T00:47:45.076Z,3.83
2022-09-07T00:50:22.278Z,3.90
2022-09-07T00:52:57.071Z,4.25
2022-09-07T00:55:25.281Z,4.10
2022-09-07T00:57:55.924Z,4.05
2022-09-07T01:00:23.489Z,3.67
2022-09-07T01:02:54.827Z,4.40
2022-09-07T01:05:45.165Z,4.45
2022-09-07T01:08:14.800Z,3.97
2022-09-07T01:10:42.345Z,3.72
2022-09-07T01:13:09.537Z,4.60
2022-09-07T01:16:01.568Z,3.55
2022-09-07T01:19:07.398Z,3.50
2022-09-07T01:21:47.404Z,3.25
2022-09-07T01:24:35.715Z,3.90
2022-09-07T01:27:27.807Z,3.92
2022-09-07T01:30:14.742Z,3.58
2022-09-07T01:32:47.683Z,3.38
2022-09-07T01:35:32.020Z,4.10
2022-09-07T01:38:05.331Z,4.03
2022-09-07T01:40:45.028Z,3.40
2022-09-07T01:43:29.397Z,3.38
2022-09-07T01:45:58.790Z,3.65
2022-09-07T01:48:28.818Z,3.75
2022-09-07T01:51:04.008Z,3.25
2022-09-07T01:53:40.494Z,3.95
2022-09-07T01:56:13.240Z,3.22
2022-09-07T01:58:46.523Z,3.97
2022-09-07T02:01:34.378Z,3.47
2022-09-07T02:04:10.906Z,4.25
2022-09-07T02:06:47.704Z,3.47
2022-09-07T02:09:26.863Z,3.50
2022-09-07T02:11:54.902Z,4.38
2022-09-07T02:14:39.812Z,3.95
2022-09-07T02:17:13.650Z,3.70
2022-09-07T02:19:55.071Z,4.20
2022-09-07T02:22:27.847Z,2.92
2022-09-07T02:25:02.442Z,3.72
2022-09-07T02:27:41.087Z,3.85
2022-09-07T02:30:08.891Z,4.30
2022-09-07T02:32:36.098Z,4.00
2022-09-07T02:37:50.364Z,4.68
2022-09-07T02:40:17.741Z,4.47
2022-09-07T02:42:47.396Z,4.55
2022-09-07T02:45:17.077Z,3.83
2022-09-07T02:47:44.153Z,4.05
2022-09-07T02:52:53.919Z,3.35
2022-09-07T02:58:44.289Z,4.60
2022-09-07T03:01:39.497Z,3.88
2022-09-07T03:04:17.852Z,4.65
2022-09-07T03:07:10.057Z,4.32
2022-09-07T03:09:43.883Z,4.13
2022-09-07T03:12:11.631Z,3.20
2022-09-07T03:14:43.973Z,4.63
2022-09-07T03:17:11.982Z,4.07
2022-09-07T03:19:39.144Z,4.15
2022-09-07T03:22:06.589Z,4.18
2022-09-07T03:31:58.077Z,4.03
2022-09-07T03:34:25.375Z,3.85
2022-09-07T03:36:52.837Z,4.22
2022-09-07T03:39:23.910Z,4.15
2022-09-07T03:41:51.129Z,3.45
2022-09-07T03:44:18.522Z,4.20
2022-09-07T03:46:45.765Z,3.13
2022-09-07T03:49:13.070Z,4.07
2022-09-07T03:51:40.521Z,3.75
2022-09-07T03:54:08.654Z,4.60
2022-09-07T03:56:36.153Z,4.53
2022-09-07T03:59:03.470Z,5.10
2022-09-07T04:01:30.871Z,4.03
2022-09-07T04:04:02.698Z,4.00
2022-09-07T04:06:31.051Z,4.30
2022-09-07T04:09:03.861Z,4.38
2022-09-07T04:11:32.117Z,3.42
2022-09-07T04:13:59.493Z,4.18
2022-09-07T04:16:27.922Z,4.93
2022-09-07T04:18:55.383Z,3.40
2022-09-07T04:21:24.140Z,4.57
2022-09-07T04:23:52.179Z,3.75
2022-09-07T04:26:21.818Z,4.40
2022-09-07T04:28:49.744Z,5.22
2022-09-07T04:31:19.084Z,4.40
2022-09-07T04:33:48.009Z,5.10
2022-09-07T04:36:17.184Z,4.93
2022-09-07T04:38:45.421Z,4.32
2022-09-07T04:41:21.427Z,3.80
2022-09-07T04:43:48.674Z,5.43
2022-09-07T04:46:19.994Z,4.57
2022-09-07T04:48:55.916Z,5.22
2022-09-07T04:51:25.878Z,4.68
2022-09-07T04:53:56.918Z,3.85
2022-09-07T04:56:25.454Z,4.82
2022-09-07T04:58:53.254Z,4.75
2022-09-07T05:01:23.086Z,5.32
2022-09-07T05:03:51.528Z,4.60
2022-09-07T05:06:23.416Z,4.30
2022-09-07T05:08:54.541Z,4.30
2022-09-07T05:11:28.816Z,4.53
2022-09-07T05:14:01.914Z,3.95
2022-09-07T05:16:30.200Z,4.72
2022-09-07T05:19:03.253Z,4.88
2022-09-07T05:21:35.207Z,3.72
2022-09-07T05:24:04.372Z,3.60
2022-09-07T05:26:34.173Z,3.90
2022-09-07T05:31:51.814Z,3.10
2022-09-07T05:34:34.557Z,3.90
2022-09-07T05:37:01.876Z,4.00
2022-09-07T05:39:29.472Z,4.25
2022-09-07T05:41:56.865Z,4.13
2022-09-07T05:47:14.194Z,4.75
2022-09-07T05:49:41.802Z,3.97
2022-09-07T05:52:09.107Z,4.57
2022-09-07T05:54:36.456Z,3.90
2022-09-07T05:57:04.711Z,4.60
2022-09-07T05:59:31.943Z,3.85
2022-09-07T06:02:00.985Z,4.47
2022-09-07T06:04:28.505Z,5.28
2022-09-07T06:07:20.615Z,4.53
2022-09-07T06:12:33.269Z,5.80
2022-09-07T06:15:02.254Z,5.18
2022-09-07T06:17:31.517Z,4.93
2022-09-07T06:19:58.770Z,4.82
2022-09-07T06:22:30.122Z,5.10
2022-09-07T06:24:58.228Z,4.10
2022-09-07T06:27:30.129Z,3.85
2022-09-07T06:29:58.300Z,4.35
2022-09-07T06:35:13.694Z,4.20
2022-09-07T06:37:41.723Z,5.00
2022-09-07T06:40:11.013Z,3.92
2022-09-07T06:42:38.901Z,4.28
2022-09-07T06:45:06.864Z,4.55
2022-09-07T06:47:34.215Z,6.68
2022-09-07T06:50:01.619Z,4.00
2022-09-07T06:55:18.204Z,3.80
2022-09-07T06:57:45.742Z,3.38
2022-09-07T07:00:13.400Z,4.13
2022-09-07T07:02:40.673Z,3.20
2022-09-07T07:05:08.473Z,3.35
2022-09-07T07:07:35.793Z,5.38
2022-09-07T07:10:02.997Z,4.22
2022-09-07T07:14:57.887Z,3.97
2022-09-07T07:17:25.244Z,2.70
2022-09-07T07:19:52.430Z,3.47
2022-09-07T07:22:42.980Z,3.70
2022-09-07T07:25:07.115Z,3.10
2022-09-07T07:27:34.519Z,3.80
2022-09-07T07:30:01.872Z,5.00
2022-09-07T07:32:32.779Z,4.13
2022-09-07T07:35:00.533Z,3.15
2022-09-07T07:37:28.447Z,3.50
2022-09-07T07:42:44.785Z,3.50
2022-09-07T07:47:59.588Z,3.50
2022-09-07T07:50:34.379Z,4.35
2022-09-07T07:55:49.746Z,3.80
2022-09-07T07:58:17.735Z,3.50
2022-09-07T08:00:54.431Z,3.47
2022-09-07T08:03:26.009Z,3.78
2022-09-07T08:05:54.837Z,3.08
2022-09-07T08:08:23.408Z,3.40
2022-09-07T08:10:51.098Z,3.00
2022-09-07T08:13:19.421Z,3.15
2022-09-07T08:15:46.989Z,3.47
2022-09-07T08:18:16.800Z,3.25
2022-09-07T08:20:44.209Z,3.08
2022-09-07T08:23:11.869Z,2.97
2022-09-07T08:25:39.399Z,2.80
2022-09-07T08:28:07.750Z,2.97
2022-09-07T08:30:35.253Z,2.72
2022-09-07T08:33:03.120Z,2.60
2022-09-07T08:35:30.136Z,2.83
2022-09-07T08:37:57.185Z,3.00
2022-09-07T08:40:24.800Z,3.03
2022-09-07T08:43:17.150Z,3.05
2022-09-07T08:45:49.964Z,2.42
2022-09-07T08:48:29.392Z,2.15
2022-09-07T08:51:07.210Z,3.30
2022-09-07T08:53:37.602Z,3.47
2022-09-07T08:56:12.042Z,3.17
2022-09-07T08:58:49.536Z,2.58
2022-09-07T09:01:32.386Z,3.03
2022-09-07T09:04:17.573Z,1.85
2022-09-07T09:06:45.512Z,2.50
2022-09-07T09:09:21.170Z,1.92
2022-09-07T09:12:12.435Z,1.83
2022-09-07T09:15:04.701Z,2.65
2022-09-07T09:17:38.366Z,2.45
2022-09-07T09:20:27.080Z,2.53
2022-09-07T09:23:15.353Z,2.67
2022-09-07T09:25:54.053Z,2.28
2022-09-07T09:28:22.161Z,2.40
2022-09-07T09:30:50.157Z,2.58
2022-09-07T09:33:26.535Z,2.40
2022-09-07T09:35:57.966Z,2.45
2022-09-07T09:38:43.721Z,2.72
2022-09-07T09:41:18.378Z,2.28
2022-09-07T09:43:47.197Z,2.85
2022-09-07T09:46:28.557Z,2.85
2022-09-07T09:49:05.247Z,2.47
2022-09-07T09:54:33.833Z,3.10
2022-09-07T09:57:01.537Z,2.00
2022-09-07T10:05:39.824Z,2.10
2022-09-07T10:08:15.843Z,2.22
2022-09-07T10:11:15.751Z,2.15
2022-09-07T10:13:56.540Z,2.60
2022-09-07T10:16:45.004Z,2.38
2022-09-07T10:19:38.397Z,2.20
2022-09-07T10:22:22.351Z,2.10
2022-09-07T10:24:50.581Z,2.20
2022-09-07T10:27:35.383Z,1.75
2022-09-07T10:30:16.221Z,2.15
2022-09-07T10:32:49.412Z,2.40
2022-09-07T10:35:39.624Z,1.67
2022-09-07T10:38:12.414Z,1.92
2022-09-07T10:40:58.436Z,2.00
2022-09-07T10:43:41.444Z,2.00
2022-09-07T10:50:21.968Z,2.10
2022-09-07T10:52:52.322Z,2.10
2022-09-07T10:55:26.786Z,1.85
2022-09-07T10:57:57.066Z,2.15
2022-09-07T11:00:26.540Z,2.10
2022-09-07T11:06:00.402Z,2.00
2022-09-07T11:14:37.233Z,1.90
2022-09-07T11:17:14.451Z,2.70
2022-09-07T11:19:53.833Z,2.17
2022-09-07T11:22:46.818Z,2.47
2022-09-07T11:25:35.870Z,2.58
2022-09-07T11:28:44.748Z,2.65
2022-09-07T11:31:25.037Z,2.75
2022-09-07T11:34:24.825Z,2.67
2022-09-07T11:37:15.902Z,3.03
2022-09-07T11:39:59.417Z,3.05
2022-09-07T11:42:45.751Z,3.28
2022-09-07T11:45:22.386Z,2.97
2022-09-07T11:48:06.437Z,2.50
2022-09-07T11:50:39.532Z,2.00
2022-09-07T11:53:18.359Z,2.38
2022-09-07T11:55:50.609Z,2.55
2022-09-07T11:58:32.866Z,2.35
2022-09-07T12:01:27.684Z,2.30
2022-09-07T12:04:14.635Z,2.65
2022-09-07T12:07:01.808Z,2.65
2022-09-07T12:09:48.279Z,5.50
2022-09-07T12:12:46.754Z,2.50
2022-09-07T12:15:30.632Z,2.47
2022-09-07T12:18:22.377Z,2.67
2022-09-07T12:20:49.779Z,2.58
2022-09-07T12:23:16.726Z,2.85
2022-09-07T12:28:24.539Z,3.28
2022-09-07T12:30:56.586Z,3.00
2022-09-07T12:33:30.192Z,2.35
2022-09-07T12:35:59.170Z,2.75
2022-09-07T12:38:32.635Z,2.90
2022-09-07T12:41:22.402Z,3.22
2022-09-07T12:43:49.372Z,3.58
2022-09-07T12:46:35.357Z,3.78
2022-09-07T12:49:24.392Z,3.53
2022-09-07T12:52:00.232Z,4.05
2022-09-07T12:55:09.964Z,3.45
2022-09-07T12:58:17.506Z,3.17
2022-09-07T13:00:56.688Z,3.05
2022-09-07T13:09:37.177Z,3.42
2022-09-07T13:15:38.973Z,3.65
2022-09-07T13:18:10.616Z,3.70
2022-09-07T13:20:42.963Z,3.80
2022-09-07T13:23:23.501Z,3.90
2022-09-07T13:25:53.960Z,3.80
2022-09-07T13:28:56.218Z,4.13
2022-09-07T13:31:45.145Z,4.93
2022-09-07T13:34:34.184Z,4.60
2022-09-07T13:37:03.304Z,4.97
2022-09-07T13:39:39.108Z,4.60
2022-09-07T13:42:09.755Z,5.88
2022-09-07T13:44:37.081Z,5.03
2022-09-07T13:47:25.880Z,4.97
2022-09-07T13:50:02.286Z,4.45
2022-09-07T13:53:23.570Z,4.97
2022-09-07T13:56:08.994Z,5.97
2022-09-07T13:58:40.491Z,5.95
2022-09-07T14:01:13.679Z,6.22
2022-09-07T14:04:07.747Z,6.97
2022-09-07T14:06:37.018Z,5.45
2022-09-07T14:09:21.275Z,6.03
2022-09-07T14:11:54.612Z,5.38
2022-09-07T14:14:31.132Z,3.10
2022-09-07T14:17:02.078Z,4.18
2022-09-07T14:19:39.580Z,4.65
2022-09-07T14:22:13.205Z,4.45
2022-09-07T14:24:47.670Z,4.22
2022-09-07T14:27:27.093Z,3.53
2022-09-07T14:29:54.461Z,3.60
2022-09-07T14:32:24.900Z,4.82
2022-09-07T14:34:52.582Z,3.38
2022-09-07T14:37:22.942Z,3.10
2022-09-07T14:39:51.107Z,3.97
2022-09-07T14:42:23.109Z,3.30
2022-09-07T14:44:51.666Z,3.08
2022-09-07T14:47:30.274Z,3.22
2022-09-07T14:50:06.182Z,2.60
2022-09-07T14:53:33.504Z,3.10
2022-09-07T14:55:39.024Z,3.40
2022-09-07T14:58:15.166Z,3.40
2022-09-07T15:00:44.643Z,2.83
2022-09-07T15:03:37.490Z,2.97
2022-09-07T15:07:00.921Z,2.58
2022-09-07T15:08:59.339Z,2.93
2022-09-07T15:11:36.431Z,3.00
2022-09-07T15:14:10.877Z,2.70
2022-09-07T15:16:44.799Z,3.00
2022-09-07T15:19:20.814Z,2.20
2022-09-07T15:21:48.220Z,2.70
2022-09-07T15:24:16.556Z,2.50
2022-09-07T15:29:35.220Z,2.42
2022-09-07T15:32:05.122Z,2.80
2022-09-07T15:34:34.404Z,2.30
2022-09-07T15:37:02.816Z,2.10
2022-09-07T15:39:31.677Z,2.10
2022-09-07T15:44:56.378Z,1.50
2022-09-07T15:50:11.242Z,2.00
2022-09-07T15:52:38.899Z,2.42
2022-09-07T15:55:08.859Z,1.90
2022-09-07T15:58:08.712Z,2.05
2022-09-07T16:00:25.852Z,1.48
2022-09-07T16:03:09.105Z,1.60
2022-09-07T16:05:40.827Z,2.25
2022-09-07T16:11:05.795Z,2.00
2022-09-07T16:13:34.589Z,1.70
2022-09-07T16:16:05.776Z,1.30
2022-09-07T16:18:34.088Z,1.77
2022-09-07T16:21:12.768Z,1.70
2022-09-07T16:23:44.532Z,1.70
2022-09-07T16:26:12.178Z,2.25
2022-09-07T16:28:41.305Z,2.05
2022-09-07T16:31:14.123Z,2.35
2022-09-07T16:33:41.280Z,1.75
2022-09-07T16:36:13.188Z,2.25
2022-09-07T16:41:31.625Z,1.73
2022-09-07T16:43:59.420Z,2.25
2022-09-07T16:46:30.781Z,2.13
2022-09-07T16:48:58.776Z,2.92
2022-09-07T16:51:26.186Z,1.92
2022-09-07T16:53:59.378Z,2.20
2022-09-07T16:59:16.226Z,1.70
2022-09-07T17:01:43.879Z,2.03
2022-09-07T17:04:11.590Z,1.50
2022-09-07T17:06:40.252Z,1.38
2022-09-07T17:11:49.927Z,1.88
2022-09-07T17:14:18.178Z,1.80
2022-09-07T17:16:45.802Z,1.55
2022-09-07T17:19:30.464Z,2.17
2022-09-07T17:21:59.012Z,2.10
2022-09-07T17:24:26.868Z,2.20
2022-09-07T17:26:54.291Z,2.20
2022-09-07T17:29:21.734Z,2.00
2022-09-07T17:34:37.127Z,2.53
2022-09-07T17:37:04.255Z,2.20
2022-09-07T17:39:31.427Z,2.20
2022-09-07T17:41:58.771Z,2.70
2022-09-07T17:44:25.845Z,2.47
2022-09-07T17:46:53.066Z,2.17
2022-09-07T17:49:20.184Z,2.13
2022-09-07T17:51:47.490Z,2.30
2022-09-07T17:54:17.632Z,2.53
2022-09-07T17:56:46.278Z,1.92
2022-09-07T18:02:01.140Z,1.67
2022-09-07T18:04:28.895Z,2.10
2022-09-07T18:06:56.188Z,2.42
2022-09-07T18:09:23.673Z,2.45
2022-09-07T18:11:51.175Z,2.28
2022-09-07T18:14:19.250Z,2.38
2022-09-07T18:16:49.381Z,2.95
2022-09-07T18:19:18.278Z,2.03
2022-09-07T18:21:48.058Z,2.10
2022-09-07T18:24:23.007Z,2.42
2022-09-07T18:26:53.179Z,2.50
2022-09-07T18:29:32.817Z,2.28
2022-09-07T18:32:02.767Z,2.55
2022-09-07T18:34:32.344Z,2.83
2022-09-07T18:37:00.493Z,2.72
2022-09-07T18:42:09.854Z,3.08
2022-09-07T18:47:27.910Z,2.30
2022-09-07T18:49:55.620Z,2.90
2022-09-07T18:55:10.345Z,3.10
2022-09-07T18:57:38.259Z,3.28
2022-09-07T19:00:08.570Z,3.50
2022-09-07T19:02:36.146Z,4.43
2022-09-07T19:07:50.690Z,3.33
2022-09-07T19:12:46.312Z,2.83
2022-09-07T19:15:14.122Z,3.42
2022-09-07T19:17:41.226Z,3.40
2022-09-07T19:20:09.106Z,3.15
2022-09-07T19:22:36.149Z,2.58
2022-09-07T19:25:03.257Z,2.83
2022-09-07T19:27:33.156Z,3.42
2022-09-07T19:30:01.492Z,3.38
2022-09-07T19:32:30.497Z,3.40
2022-09-07T19:34:57.637Z,4.78
2022-09-07T19:37:43.556Z,3.60
2022-09-07T19:40:14.662Z,3.70
2022-09-07T19:42:46.190Z,3.45
2022-09-07T19:45:14.214Z,2.97
2022-09-07T19:47:41.169Z,3.00
2022-09-07T19:50:08.820Z,3.38
2022-09-07T19:52:36.302Z,15.07
2022-09-07T19:55:04.120Z,3.70
2022-09-07T19:57:31.171Z,4.28
2022-09-07T19:59:59.314Z,5.13
2022-09-07T20:02:34.543Z,4.35
2022-09-07T20:05:01.874Z,3.55
2022-09-07T20:07:35.174Z,3.67
2022-09-07T20:10:02.275Z,3.72
2022-09-07T20:12:30.263Z,3.80
2022-09-07T20:17:24.270Z,3.38
2022-09-07T20:19:51.249Z,3.38
2022-09-07T20:24:45.180Z,3.88
2022-09-07T20:29:42.390Z,4.03
2022-09-07T20:32:09.904Z,8.95
2022-09-07T20:34:37.760Z,3.38
2022-09-07T20:37:05.485Z,3.17
2022-09-07T20:39:36.990Z,3.20
2022-09-07T20:42:07.038Z,3.55
2022-09-07T20:44:34.083Z,2.75
2022-09-07T20:49:28.489Z,2.87
2022-09-07T20:51:55.516Z,2.72
2022-09-07T20:54:23.103Z,2.40
2022-09-07T20:56:50.241Z,3.40
2022-09-07T21:01:44.356Z,3.90
2022-09-07T21:04:11.477Z,3.75
2022-09-07T21:06:38.619Z,3.47
2022-09-07T21:09:05.869Z,4.22
2022-09-07T21:11:34.717Z,3.90
2022-09-07T21:14:22.574Z,4.00
2022-09-07T21:16:49.567Z,3.85
2022-09-07T21:21:43.660Z,4.68
2022-09-07T21:24:17.918Z,4.43
2022-09-07T21:26:45.943Z,4.70
2022-09-07T21:29:23.332Z,4.43
2022-09-07T21:31:52.903Z,4.38
2022-09-07T21:34:20.446Z,3.58
2022-09-07T21:36:47.844Z,4.25
2022-09-07T21:39:16.291Z,4.28
2022-09-07T21:41:44.328Z,4.43
2022-09-07T21:44:16.165Z,3.85
2022-09-07T21:46:44.247Z,4.50
2022-09-07T21:49:11.989Z,4.40
2022-09-07T21:51:39.204Z,4.13
2022-09-07T21:54:06.341Z,4.35
2022-09-07T21:56:33.528Z,4.93
2022-09-07T21:59:02.814Z,4.45
2022-09-07T22:01:31.242Z,4.95
2022-09-07T22:04:03.921Z,4.57
2022-09-07T22:06:32.541Z,4.10
2022-09-07T22:09:01.284Z,4.70
2022-09-07T22:11:29.228Z,4.25
2022-09-07T22:13:59.042Z,4.72
2022-09-07T22:16:26.420Z,4.05
2022-09-07T22:18:53.708Z,4.43
2022-09-07T22:21:25.964Z,4.60
2022-09-07T22:23:56.432Z,4.15
2022-09-07T22:26:25.478Z,4.20
2022-09-07T22:28:52.750Z,4.70
2022-09-07T22:33:48.974Z,3.93
2022-09-07T22:36:26.148Z,3.97
2022-09-07T22:38:55.672Z,4.95
2022-09-07T22:41:25.952Z,5.15
2022-09-07T22:43:52.993Z,4.75
2022-09-07T22:48:48.602Z,4.90
2022-09-07T22:51:16.713Z,4.10
2022-09-07T22:53:44.371Z,5.38
2022-09-07T22:56:14.934Z,4.63
2022-09-07T22:58:46.992Z,3.70
2022-09-07T23:01:15.237Z,4.22
2022-09-07T23:03:43.948Z,4.63
2022-09-07T23:06:21.901Z,4.55
2022-09-07T23:08:53.002Z,4.10
2022-09-07T23:11:21.404Z,4.53
2022-09-07T23:13:57.235Z,3.88
2022-09-07T23:16:25.601Z,4.50
2022-09-07T23:18:52.744Z,4.70
2022-09-07T23:21:20.071Z,4.65
2022-09-07T23:23:53.284Z,4.30
2022-09-07T23:26:21.864Z,5.03
2022-09-07T23:28:57.092Z,4.05
2022-09-07T23:31:25.884Z,4.63
2022-09-07T23:33:53.107Z,4.78
2022-09-07T23:36:20.575Z,4.30
2022-09-07T23:38:47.986Z,3.92
2022-09-07T23:41:17.932Z,4.15
2022-09-07T23:43:45.543Z,4.70
2022-09-07T23:46:13.704Z,4.45
2022-09-07T23:48:42.815Z,4.07
2022-09-07T23:51:10.040Z,4.32
2022-09-07T23:53:37.275Z,4.25
2022-09-07T23:56:04.556Z,4.13
2022-09-07T23:58:31.657Z,4.13
